createdAt,value
2018-03-01T00:00:07.452Z,-5.40
2018-03-01T00:02:33.418Z,-5.50
2018-03-01T00:05:00.156Z,-5.40
2018-03-01T00:07:26.137Z,-5.40
2018-03-01T00:09:52.145Z,-5.40
2018-03-01T00:12:18.106Z,-5.40
2018-03-01T00:14:44.567Z,-5.40
2018-03-01T00:17:11.274Z,-5.70
2018-03-01T00:19:37.271Z,-5.70
2018-03-01T00:22:03.242Z,-5.60
2018-03-01T00:24:29.319Z,-5.50
2018-03-01T00:26:55.283Z,-5.40
2018-03-01T00:29:22.043Z,-5.60
2018-03-01T00:31:48.746Z,-5.60
2018-03-01T00:34:14.761Z,-5.60
2018-03-01T00:36:40.753Z,-5.60
2018-03-01T00:39:06.739Z,-5.50
2018-03-01T00:41:32.726Z,-5.50
2018-03-01T00:43:58.722Z,-5.70
2018-03-01T00:46:24.714Z,-5.70
2018-03-01T00:48:51.448Z,-5.80
2018-03-01T00:51:18.174Z,-5.80
2018-03-01T00:53:44.176Z,-5.80
2018-03-01T00:56:10.161Z,-5.70
2018-03-01T00:58:36.143Z,-5.70
2018-03-01T01:01:02.131Z,-5.70
2018-03-01T01:03:28.126Z,-5.60
2018-03-01T01:05:54.137Z,-5.50
2018-03-01T01:08:20.115Z,-5.60
2018-03-01T01:10:46.107Z,-5.60
2018-03-01T01:13:12.079Z,-5.70
2018-03-01T01:15:38.076Z,-5.70
2018-03-01T01:18:04.055Z,-5.80
2018-03-01T01:20:30.047Z,-5.80
2018-03-01T01:22:56.030Z,-5.70
2018-03-01T01:25:22.021Z,-5.70
2018-03-01T01:27:48.717Z,-5.70
2018-03-01T01:30:14.722Z,-5.70
2018-03-01T01:32:40.999Z,-5.70
2018-03-01T01:35:07.966Z,-5.70
2018-03-01T01:37:34.799Z,-5.60
2018-03-01T01:40:00.808Z,-5.60
2018-03-01T01:42:26.786Z,-5.70
2018-03-01T01:44:52.923Z,-5.70
2018-03-01T01:47:18.919Z,-5.70
2018-03-01T01:49:44.893Z,-5.70
2018-03-01T01:52:10.894Z,-5.70
2018-03-01T01:54:36.875Z,-5.70
2018-03-01T01:57:02.962Z,-5.80
2018-03-01T01:59:28.956Z,-5.80
2018-03-01T02:01:55.727Z,-5.70
2018-03-01T02:04:21.730Z,-5.70
2018-03-01T02:06:47.722Z,-5.70
2018-03-01T02:09:13.710Z,-5.80
2018-03-01T02:11:40.434Z,-5.70
2018-03-01T02:14:06.431Z,-5.70
2018-03-01T02:16:32.455Z,-5.70
2018-03-01T02:18:58.425Z,-5.80
2018-03-01T02:21:25.199Z,-5.80
2018-03-01T02:23:51.188Z,-5.80
2018-03-01T02:26:17.938Z,-5.90
2018-03-01T02:28:43.983Z,-5.90
2018-03-01T02:31:09.954Z,-5.90
2018-03-01T02:33:35.994Z,-6.00
2018-03-01T02:36:02.719Z,-6.00
2018-03-01T02:38:28.723Z,-5.90
2018-03-01T02:40:54.702Z,-5.80
2018-03-01T02:43:20.687Z,-5.90
2018-03-01T02:45:46.666Z,-5.90
2018-03-01T02:48:12.647Z,-5.90
2018-03-01T02:50:39.372Z,-5.80
2018-03-01T02:53:05.349Z,-5.80
2018-03-01T02:55:31.524Z,-5.80
2018-03-01T02:57:57.615Z,-5.80
2018-03-01T03:00:23.887Z,-5.70
2018-03-01T03:02:50.138Z,-5.70
2018-03-01T03:05:16.120Z,-5.70
2018-03-01T03:07:42.287Z,-5.60
2018-03-01T03:10:09.112Z,-5.60
2018-03-01T03:12:35.818Z,-5.60
2018-03-01T03:15:01.807Z,-5.60
2018-03-01T03:17:27.781Z,-5.60
2018-03-01T03:19:53.760Z,-5.60
2018-03-01T03:22:19.731Z,-5.60
2018-03-01T03:24:45.726Z,-5.60
2018-03-01T03:27:11.707Z,-5.60
2018-03-01T03:29:37.694Z,-5.60
2018-03-01T03:32:03.666Z,-5.60
2018-03-01T03:34:29.663Z,-5.70
2018-03-01T03:36:55.642Z,-5.80
2018-03-01T03:39:21.621Z,-5.80
2018-03-01T03:41:47.605Z,-5.70
2018-03-01T03:44:13.600Z,-5.70
2018-03-01T03:46:39.574Z,-5.70
2018-03-01T03:49:06.358Z,-5.60
2018-03-01T03:51:32.334Z,-5.70
2018-03-01T03:53:59.090Z,-5.70
2018-03-01T03:56:25.070Z,-5.70
2018-03-01T03:58:51.030Z,-5.80
2018-03-01T04:01:17.028Z,-5.80
2018-03-01T04:03:43.023Z,-5.70
2018-03-01T04:06:09.024Z,-5.70
2018-03-01T04:08:34.990Z,-5.70
2018-03-01T04:11:00.979Z,-5.70
2018-03-01T04:13:26.961Z,-5.80
2018-03-01T04:15:52.963Z,-5.80
2018-03-01T04:18:18.938Z,-5.80
2018-03-01T04:20:44.926Z,-5.80
2018-03-01T04:23:11.646Z,-5.70
2018-03-01T04:25:37.627Z,-5.70
2018-03-01T04:28:03.640Z,-5.60
2018-03-01T04:30:29.648Z,-5.60
2018-03-01T04:32:55.626Z,-5.60
2018-03-01T04:35:21.899Z,-5.60
2018-03-01T04:37:47.870Z,-5.60
2018-03-01T04:40:13.859Z,-5.60
2018-03-01T04:42:39.803Z,-5.60
2018-03-01T04:45:05.787Z,-5.60
2018-03-01T04:47:31.780Z,-5.60
2018-03-01T04:49:57.756Z,-5.50
2018-03-01T04:52:23.789Z,-5.60
2018-03-01T04:54:49.851Z,-5.50
2018-03-01T04:57:15.848Z,-5.40
2018-03-01T04:59:41.831Z,-5.40
2018-03-01T05:02:07.830Z,-5.50
2018-03-01T05:04:34.578Z,-5.40
2018-03-01T05:07:00.582Z,-5.40
2018-03-01T05:09:26.558Z,-5.50
2018-03-01T05:11:52.544Z,-5.40
2018-03-01T05:14:18.503Z,-5.40
2018-03-01T05:16:44.487Z,-5.40
2018-03-01T05:19:10.446Z,-5.30
2018-03-01T05:21:36.491Z,-5.20
2018-03-01T05:24:02.462Z,-5.10
2018-03-01T05:26:29.231Z,-5.10
2018-03-01T05:28:55.206Z,-5.10
2018-03-01T05:31:21.195Z,-5.10
2018-03-01T05:33:47.143Z,-4.90
2018-03-01T05:36:13.087Z,-4.90
2018-03-01T05:38:39.055Z,-5.00
2018-03-01T05:41:05.070Z,-5.00
2018-03-01T05:43:31.054Z,-5.00
2018-03-01T05:45:57.762Z,-5.10
2018-03-01T05:48:23.920Z,-5.10
2018-03-01T05:50:50.677Z,-5.00
2018-03-01T05:53:16.693Z,-5.00
2018-03-01T05:55:42.674Z,-4.90
2018-03-01T05:58:08.694Z,-5.00
2018-03-01T06:00:34.690Z,-5.00
2018-03-01T06:03:00.705Z,-5.00
2018-03-01T06:05:26.699Z,-4.90
2018-03-01T06:07:53.443Z,-4.80
2018-03-01T06:10:20.199Z,-4.80
2018-03-01T06:12:46.199Z,-4.80
2018-03-01T06:15:12.921Z,-4.80
2018-03-01T06:17:38.977Z,-4.80
2018-03-01T06:20:04.975Z,-4.90
2018-03-01T06:22:30.976Z,-4.20
2018-03-01T06:24:56.935Z,-4.30
2018-03-01T06:27:23.706Z,-4.70
2018-03-01T06:29:50.496Z,-4.80
2018-03-01T06:32:16.507Z,-4.80
2018-03-01T06:34:42.475Z,-4.80
2018-03-01T06:37:08.492Z,-4.90
2018-03-01T06:39:34.519Z,-4.70
2018-03-01T06:42:00.502Z,-4.80
2018-03-01T06:44:26.517Z,-4.70
2018-03-01T06:46:52.522Z,-4.70
2018-03-01T06:49:18.526Z,-4.60
2018-03-01T06:51:44.494Z,-4.70
2018-03-01T06:54:10.494Z,-4.80
2018-03-01T06:56:36.470Z,-4.80
2018-03-01T06:59:03.246Z,-4.80
2018-03-01T07:01:29.211Z,-4.80
2018-03-01T07:03:55.224Z,-4.80
2018-03-01T07:06:21.220Z,-4.90
2018-03-01T07:08:47.189Z,-4.90
2018-03-01T07:11:13.194Z,-4.90
2018-03-01T07:13:39.182Z,-4.80
2018-03-01T07:16:05.175Z,-4.80
2018-03-01T07:18:31.935Z,-4.70
2018-03-01T07:20:57.939Z,-4.70
2018-03-01T07:23:24.654Z,-4.70
2018-03-01T07:25:50.634Z,-4.70
2018-03-01T07:28:16.608Z,-4.60
2018-03-01T07:30:42.670Z,-4.60
2018-03-01T07:33:08.695Z,-4.50
2018-03-01T07:35:34.666Z,-4.60
2018-03-01T07:38:00.651Z,-4.60
2018-03-01T07:40:26.619Z,-4.50
2018-03-01T07:42:52.742Z,-4.50
2018-03-01T07:45:18.723Z,-4.40
2018-03-01T07:47:44.710Z,-4.40
2018-03-01T07:50:10.691Z,-4.40
2018-03-01T07:52:36.664Z,-4.30
2018-03-01T07:55:02.672Z,-4.30
2018-03-01T07:57:28.642Z,-4.30
2018-03-01T07:59:54.627Z,-4.30
2018-03-01T08:02:21.351Z,-4.10
2018-03-01T08:04:47.322Z,-4.10
2018-03-01T08:07:13.290Z,-4.00
2018-03-01T08:09:39.270Z,-4.00
2018-03-01T08:12:05.313Z,-4.00
2018-03-01T08:14:31.317Z,-4.00
2018-03-01T08:16:57.342Z,-4.00
2018-03-01T08:19:23.340Z,-4.00
2018-03-01T08:21:50.135Z,-3.60
2018-03-01T08:24:16.123Z,-3.70
2018-03-01T08:26:42.114Z,-3.60
2018-03-01T08:29:08.871Z,-3.70
2018-03-01T08:31:35.602Z,-3.70
2018-03-01T08:34:01.604Z,-3.70
2018-03-01T08:36:27.602Z,-3.70
2018-03-01T08:38:57.523Z,-3.60
2018-03-01T08:41:24.445Z,-3.60
2018-03-01T08:43:50.427Z,-3.60
2018-03-01T08:46:18.360Z,-3.60
2018-03-01T08:48:44.359Z,-3.60
2018-03-01T08:51:10.347Z,-3.40
2018-03-01T08:53:36.327Z,-3.30
2018-03-01T08:56:02.334Z,-3.40
2018-03-01T08:58:28.310Z,-3.40
2018-03-01T09:00:54.284Z,-3.50
2018-03-01T09:03:20.273Z,-3.40
2018-03-01T09:05:47.303Z,-3.30
2018-03-01T09:08:13.307Z,-3.40
2018-03-01T09:10:39.287Z,-3.20
2018-03-01T09:13:05.274Z,-3.20
2018-03-01T09:15:32.123Z,-2.90
2018-03-01T09:17:58.198Z,-3.00
2018-03-01T09:20:24.163Z,-3.00
2018-03-01T09:22:50.887Z,-3.00
2018-03-01T09:25:17.607Z,-2.90
2018-03-01T09:27:43.624Z,-3.00
2018-03-01T09:30:09.599Z,-2.90
2018-03-01T09:32:36.327Z,-2.80
2018-03-01T09:35:03.131Z,-2.80
2018-03-01T09:37:29.095Z,-2.80
2018-03-01T09:39:55.835Z,-2.70
2018-03-01T09:42:22.556Z,-2.70
2018-03-01T09:44:48.562Z,-2.80
2018-03-01T09:47:14.539Z,-2.60
2018-03-01T09:49:40.527Z,-2.50
2018-03-01T09:52:07.277Z,-2.30
2018-03-01T09:54:34.026Z,-2.30
2018-03-01T09:57:00.746Z,-2.30
2018-03-01T09:59:26.739Z,-2.30
2018-03-01T10:01:52.715Z,-2.20
2018-03-01T10:04:18.715Z,-2.20
2018-03-01T10:06:45.447Z,-2.50
2018-03-01T10:09:11.492Z,-2.50
2018-03-01T10:11:37.498Z,-2.60
2018-03-01T10:14:03.503Z,-2.60
2018-03-01T10:16:29.473Z,-2.60
2018-03-01T10:18:56.206Z,-2.60
2018-03-01T10:21:22.376Z,-2.60
2018-03-01T10:23:48.392Z,-2.50
2018-03-01T10:26:14.385Z,-2.60
2018-03-01T10:28:41.103Z,-2.50
2018-03-01T10:31:07.088Z,-2.60
2018-03-01T10:33:39.148Z,-2.60
2018-03-01T10:36:05.130Z,-2.50
2018-03-01T10:38:31.881Z,-2.30
2018-03-01T10:40:58.000Z,-2.30
2018-03-01T10:43:25.515Z,-2.30
2018-03-01T10:45:54.326Z,-2.30
2018-03-01T10:48:21.016Z,-2.30
2018-03-01T10:50:47.859Z,-2.20
2018-03-01T10:53:13.835Z,-2.20
2018-03-01T10:55:41.446Z,-2.20
2018-03-01T10:58:08.112Z,-2.30
2018-03-01T11:00:40.227Z,-2.30
2018-03-01T11:03:06.751Z,-2.20
2018-03-01T11:05:36.685Z,-2.10
2018-03-01T11:08:03.271Z,-2.10
2018-03-01T11:10:29.290Z,-2.00
2018-03-01T11:12:55.270Z,-1.90
2018-03-01T11:15:21.991Z,-1.70
2018-03-01T11:17:49.514Z,-1.70
2018-03-01T11:20:16.320Z,-1.60
2018-03-01T11:22:42.559Z,-1.60
2018-03-01T11:25:08.551Z,-1.50
2018-03-01T11:27:35.176Z,-1.40
2018-03-01T11:30:01.908Z,-1.20
2018-03-01T11:32:28.667Z,-1.20
2018-03-01T11:34:55.612Z,-1.10
2018-03-01T11:37:21.899Z,-1.10
2018-03-01T11:39:48.610Z,-1.00
2018-03-01T11:42:15.454Z,-0.80
2018-03-01T11:44:43.622Z,-1.00
2018-03-01T11:47:13.493Z,-1.00
2018-03-01T11:49:42.211Z,-1.00
2018-03-01T11:52:10.867Z,-0.90
2018-03-01T11:54:38.915Z,-0.90
2018-03-01T11:57:07.214Z,-0.60
2018-03-01T11:59:37.698Z,-0.30
2018-03-01T12:02:05.714Z,-0.30
2018-03-01T12:04:39.663Z,-0.10
2018-03-01T12:07:10.679Z,0.10
2018-03-01T12:09:38.369Z,0.40
2018-03-01T12:12:09.279Z,0.70
2018-03-01T12:14:38.919Z,0.80
2018-03-01T12:17:10.235Z,1.00
2018-03-01T12:19:39.523Z,1.10
2018-03-01T12:22:14.878Z,1.20
2018-03-01T12:24:44.899Z,1.30
2018-03-01T12:27:19.678Z,0.60
2018-03-01T12:32:42.186Z,0.70
2018-03-01T12:35:16.275Z,0.40
2018-03-01T12:37:47.031Z,0.20
2018-03-01T12:40:17.387Z,-0.10
2018-03-01T12:42:53.271Z,-0.30
2018-03-01T12:45:56.819Z,-0.30
2018-03-01T12:54:27.534Z,0.10
2018-03-01T12:57:44.064Z,0.90
2018-03-01T13:03:08.287Z,0.80
2018-03-01T13:05:45.658Z,0.30
2018-03-01T13:08:35.099Z,-0.40
2018-03-01T13:11:26.742Z,-0.50
2018-03-01T13:14:24.699Z,-0.30
2018-03-01T15:28:54.755Z,-1.10
2018-03-01T15:31:20.915Z,-1.10
2018-03-01T15:33:46.900Z,-1.20
2018-03-01T15:36:12.929Z,-1.20
2018-03-01T15:38:38.891Z,-1.20
2018-03-01T15:41:04.859Z,-1.20
2018-03-01T15:43:30.812Z,-1.20
2018-03-01T15:45:57.525Z,-1.10
2018-03-01T15:48:23.654Z,-1.10
2018-03-01T15:50:49.932Z,-1.10
2018-03-01T15:53:16.242Z,-1.10
2018-03-01T15:55:42.234Z,-1.10
2018-03-01T15:58:08.231Z,-1.20
2018-03-01T16:00:34.687Z,-1.20
2018-03-01T16:03:01.548Z,-1.40
2018-03-01T16:05:27.686Z,-1.50
2018-03-01T16:07:54.022Z,-1.40
2018-03-01T16:10:20.078Z,-1.50
2018-03-01T16:12:46.182Z,-1.40
2018-03-01T16:15:12.216Z,-1.50
2018-03-01T16:17:38.212Z,-1.70
2018-03-01T16:20:05.110Z,-1.90
2018-03-01T16:22:31.324Z,-1.90
2018-03-01T16:24:57.297Z,-1.80
2018-03-01T16:27:24.139Z,-1.90
2018-03-01T16:29:50.859Z,-1.90
2018-03-01T16:32:16.862Z,-1.90
2018-03-01T16:34:42.822Z,-1.90
2018-03-01T16:37:09.826Z,-1.90
2018-03-01T16:39:35.791Z,-1.90
2018-03-01T16:42:02.530Z,-1.90
2018-03-01T16:44:28.494Z,-1.90
2018-03-01T16:46:54.498Z,-2.00
2018-03-01T16:49:21.202Z,-2.00
2018-03-01T16:51:47.203Z,-2.00
2018-03-01T16:54:13.183Z,-2.00
2018-03-01T16:56:39.171Z,-1.90
2018-03-01T16:59:05.195Z,-2.10
2018-03-01T17:01:31.186Z,0.40
2018-03-01T17:03:57.166Z,-1.00
2018-03-01T17:06:24.195Z,-2.00
2018-03-01T17:08:50.928Z,-2.00
2018-03-01T17:11:16.984Z,-2.00
2018-03-01T17:13:43.016Z,-2.10
2018-03-01T17:16:08.995Z,-2.10
2018-03-01T17:18:35.756Z,-2.30
2018-03-01T17:21:02.479Z,-2.30
2018-03-01T17:23:29.219Z,-2.40
2018-03-01T17:25:55.308Z,-2.40
2018-03-01T17:28:21.311Z,-2.40
2018-03-01T17:30:47.318Z,-2.50
2018-03-01T17:33:13.314Z,-2.50
2018-03-01T17:35:40.026Z,-2.50
2018-03-01T17:38:06.002Z,-2.50
2018-03-01T17:40:32.716Z,-2.60
2018-03-01T17:42:58.714Z,-2.60
2018-03-01T17:45:24.714Z,-2.50
2018-03-01T17:47:50.682Z,-2.50
2018-03-01T17:50:16.678Z,-2.40
2018-03-01T17:52:42.677Z,-2.50
2018-03-01T17:55:08.675Z,-2.40
2018-03-01T17:57:35.494Z,-2.50
2018-03-01T18:00:01.650Z,-2.60
2018-03-01T18:02:27.658Z,-2.50
2018-03-01T18:04:53.639Z,-2.50
2018-03-01T18:07:19.622Z,-2.40
2018-03-01T18:09:46.379Z,-2.30
2018-03-01T18:12:12.375Z,-2.30
2018-03-01T18:14:38.374Z,-2.30
2018-03-01T18:17:04.352Z,-2.40
2018-03-01T18:19:30.543Z,-2.40
2018-03-01T18:21:58.959Z,-2.40
2018-03-01T18:24:25.338Z,-2.50
2018-03-01T18:26:52.246Z,-2.60
2018-03-01T18:29:18.551Z,-2.50
2018-03-01T18:31:45.434Z,-2.40
2018-03-01T18:34:11.655Z,-2.40
2018-03-01T18:36:37.823Z,-2.30
2018-03-01T18:39:04.547Z,-2.40
2018-03-01T18:41:30.571Z,-2.40
2018-03-01T18:43:56.578Z,-2.40
2018-03-01T18:46:22.574Z,-2.40
2018-03-01T18:48:48.575Z,-2.40
2018-03-01T18:51:15.315Z,-2.30
2018-03-01T18:53:41.359Z,-2.40
2018-03-01T18:56:07.368Z,-2.30
2018-03-01T18:58:33.346Z,-2.30
2018-03-01T19:00:59.332Z,-2.40
2018-03-01T19:03:25.825Z,-2.50
2018-03-01T19:05:52.583Z,-2.60
2018-03-01T19:08:19.298Z,-2.60
2018-03-01T19:10:45.286Z,-2.60
2018-03-01T19:13:11.269Z,-2.50
2018-03-01T19:15:37.995Z,-2.50
2018-03-01T19:18:04.752Z,-2.60
2018-03-01T19:20:31.664Z,-2.50
2018-03-01T19:22:57.811Z,-2.50
2018-03-01T19:25:23.990Z,-2.50
2018-03-01T19:27:49.962Z,-2.50
2018-03-01T19:30:16.657Z,-2.40
2018-03-01T19:32:42.649Z,-2.50
2018-03-01T19:35:08.638Z,-2.50
2018-03-01T19:37:34.627Z,-2.50
2018-03-01T19:40:00.623Z,-2.50
2018-03-01T19:42:26.640Z,-2.50
2018-03-01T19:44:52.640Z,-2.60
2018-03-01T19:47:19.380Z,-2.60
2018-03-01T19:49:45.427Z,-2.60
2018-03-01T19:52:11.427Z,-2.60
2018-03-01T19:54:37.444Z,-2.60
2018-03-01T19:57:04.204Z,-2.60
2018-03-01T19:59:30.187Z,-2.70
2018-03-01T20:01:56.195Z,-2.60
2018-03-01T20:04:22.183Z,-2.60
2018-03-01T20:06:48.183Z,-2.60
2018-03-01T20:09:14.936Z,-2.70
2018-03-01T20:11:40.953Z,-2.80
2018-03-01T20:14:06.954Z,-2.80
2018-03-01T20:16:32.934Z,-2.80
2018-03-01T20:18:58.923Z,-2.90
2018-03-01T20:21:24.939Z,-2.90
2018-03-01T20:23:51.715Z,-3.00
2018-03-01T20:26:17.715Z,-3.00
2018-03-01T20:28:43.732Z,-3.00
2018-03-01T20:31:09.751Z,-3.00
2018-03-01T20:33:36.490Z,-3.00
2018-03-01T20:36:02.516Z,-3.00
2018-03-01T20:38:29.238Z,-3.10
2018-03-01T20:40:55.217Z,-3.10
2018-03-01T20:43:21.219Z,-3.10
2018-03-01T20:45:47.195Z,-3.10
2018-03-01T20:48:13.207Z,-3.30
2018-03-01T20:50:39.187Z,-3.20
2018-03-01T20:53:05.183Z,-3.30
2018-03-01T20:55:31.899Z,-3.40
2018-03-01T20:57:57.899Z,-3.40
2018-03-01T21:00:24.079Z,-3.00
2018-03-01T21:02:50.803Z,-3.20
2018-03-01T21:05:16.811Z,-3.20
2018-03-01T21:07:42.804Z,-3.30
2018-03-01T21:10:08.810Z,-3.40
2018-03-01T21:12:34.791Z,-3.40
2018-03-01T21:15:02.281Z,-3.50
2018-03-01T21:17:28.271Z,-3.50
2018-03-01T21:19:54.260Z,-3.40
2018-03-01T21:22:20.250Z,-3.30
2018-03-01T21:24:46.267Z,-3.20
2018-03-01T21:27:12.991Z,-3.20
2018-03-01T21:29:39.776Z,-3.20
2018-03-01T21:32:05.874Z,-3.20
2018-03-01T21:34:32.246Z,-3.20
2018-03-01T21:36:58.232Z,-3.30
2018-03-01T21:39:24.970Z,-3.20
2018-03-01T21:41:51.695Z,-3.20
2018-03-01T21:44:18.427Z,-3.20
2018-03-01T21:46:50.707Z,-3.20
2018-03-01T21:49:16.674Z,-3.20
2018-03-01T21:51:42.673Z,-3.20
2018-03-01T21:54:08.678Z,-3.30
2018-03-01T21:56:34.697Z,-3.30
2018-03-01T21:59:00.674Z,-3.40
2018-03-01T22:01:26.663Z,-3.30
2018-03-01T22:03:53.435Z,-3.30
2018-03-01T22:06:19.513Z,-3.30
2018-03-01T22:08:45.482Z,-3.20
2018-03-01T22:11:11.492Z,-3.20
2018-03-01T22:13:37.552Z,-3.20
2018-03-01T22:16:03.562Z,-3.30
2018-03-01T22:18:29.548Z,-3.30
2018-03-01T22:20:55.619Z,-3.20
2018-03-01T22:23:21.604Z,-3.20
2018-03-01T22:25:47.611Z,-3.10
2018-03-01T22:28:13.620Z,-3.10
2018-03-01T22:30:39.771Z,-3.20
2018-03-01T22:33:05.762Z,-3.20
2018-03-01T22:35:32.511Z,-3.20
2018-03-01T22:37:58.515Z,-3.30
2018-03-01T22:40:24.495Z,-3.30
2018-03-01T22:42:50.578Z,-3.30
2018-03-01T22:45:16.558Z,-3.20
2018-03-01T22:47:42.655Z,-3.30
2018-03-01T22:50:08.673Z,-3.30
2018-03-01T22:52:34.678Z,-3.30
2018-03-01T22:55:00.659Z,-3.30
2018-03-01T22:57:26.671Z,-3.30
2018-03-01T22:59:52.675Z,-3.20
2018-03-01T23:02:19.408Z,-3.30
2018-03-01T23:04:46.139Z,-3.20
2018-03-01T23:07:12.130Z,-3.20
2018-03-01T23:09:38.135Z,-3.20
2018-03-01T23:12:04.118Z,-3.10
2018-03-01T23:14:30.834Z,-3.20
2018-03-01T23:16:56.838Z,-3.20
2018-03-01T23:19:22.963Z,-3.20
2018-03-01T23:21:50.479Z,-3.20
2018-03-01T23:24:16.459Z,-3.20
2018-03-01T23:26:42.443Z,-3.30
2018-03-01T23:29:08.441Z,-3.40
2018-03-01T23:31:34.428Z,-3.50
2018-03-01T23:34:00.431Z,-3.50
2018-03-01T23:36:26.415Z,-3.40
2018-03-01T23:38:52.422Z,-3.40
2018-03-01T23:41:19.147Z,-3.50
2018-03-01T23:43:45.151Z,-3.50
2018-03-01T23:46:11.140Z,-3.50
2018-03-01T23:48:37.137Z,-3.60
2018-03-01T23:51:03.871Z,-3.50
2018-03-01T23:53:30.699Z,-3.50
2018-03-01T23:55:56.676Z,-3.60
2018-03-01T23:58:22.667Z,-3.70
